ABY154 OMSJ-OERK
Flight info
| Callsign | ABY154 |
|---|---|
| Flight time | 2h 4m |
| Altitude | 36000 |
| Route | ANVIX R401 GIDIS G783 RIGIL M628 PEKEM DCT MEDPO DCT SITUK M321 RESAL |
| Aircraft | A321/M-SDE3FGHIRWY/LB1 |
Departure
| Time | 2026-04-25 17:19 |
|---|---|
| Airport | Sharjah International Airport (OMSJ) |
Arrival
| Time | 2026-04-25 19:23 |
|---|---|
| Airport | King Khalid International Airport (OERK) |
| Time | Latitude | Longitude | Altitude | Speed | Heading |
|---|---|---|---|---|---|
| 2026-04-25 16:48 | 25.32321 | 55.52020 | 115 ft | 0 kts | 212° |
| 2026-04-25 17:04 | 25.32328 | 55.52025 | 112 ft | 3 kts | 209° |
| 2026-04-25 17:04 | 25.32342 | 55.52032 | 115 ft | 2 kts | 202° |
| 2026-04-25 17:05 | 25.32356 | 55.52037 | 114 ft | 3 kts | 185° |
| 2026-04-25 17:05 | 25.32385 | 55.52035 | 112 ft | 2 kts | 148° |
| 2026-04-25 17:05 | 25.32398 | 55.52026 | 114 ft | 2 kts | 133° |
| 2026-04-25 17:06 | 25.32406 | 55.52017 | 113 ft | 2 kts | 133° |
| 2026-04-25 17:06 | 25.32413 | 55.52007 | 114 ft | 2 kts | 127° |
| 2026-04-25 17:06 | 25.32420 | 55.51998 | 113 ft | 2 kts | 122° |
| 2026-04-25 17:06 | 25.32423 | 55.51991 | 112 ft | 0 kts | 124° |
| 2026-04-25 17:11 | 25.32422 | 55.51993 | 114 ft | 2 kts | 124° |
| 2026-04-25 17:11 | 25.32405 | 55.52021 | 113 ft | 6 kts | 123° |
| 2026-04-25 17:12 | 25.32376 | 55.52070 | 113 ft | 10 kts | 123° |
| 2026-04-25 17:12 | 25.32344 | 55.52127 | 113 ft | 0 kts | 121° |
| 2026-04-25 17:12 | 25.32340 | 55.52135 | 115 ft | 4 kts | 120° |
| 2026-04-25 17:12 | 25.32317 | 55.52176 | 114 ft | 9 kts | 122° |
| 2026-04-25 17:13 | 25.32274 | 55.52251 | 114 ft | 11 kts | 122° |
| 2026-04-25 17:13 | 25.32265 | 55.52298 | 114 ft | 10 kts | 69° |
| 2026-04-25 17:13 | 25.32277 | 55.52392 | 114 ft | 11 kts | 122° |
| 2026-04-25 17:13 | 25.32226 | 55.52484 | 114 ft | 16 kts | 120° |
| 2026-04-25 17:14 | 25.32181 | 55.52564 | 114 ft | 13 kts | 122° |
| 2026-04-25 17:14 | 25.32124 | 55.52660 | 115 ft | 16 kts | 123° |
| 2026-04-25 17:14 | 25.32055 | 55.52779 | 115 ft | 20 kts | 122° |
| 2026-04-25 17:14 | 25.31980 | 55.52908 | 115 ft | 20 kts | 122° |
| 2026-04-25 17:15 | 25.31936 | 55.52987 | 115 ft | 12 kts | 122° |
| 2026-04-25 17:15 | 25.31889 | 55.53068 | 115 ft | 14 kts | 122° |
| 2026-04-25 17:15 | 25.31825 | 55.53178 | 115 ft | 20 kts | 123° |
| 2026-04-25 17:15 | 25.31786 | 55.53288 | 115 ft | 16 kts | 99° |
| 2026-04-25 17:16 | 25.31812 | 55.53372 | 114 ft | 11 kts | 38° |
| 2026-04-25 17:16 | 25.31889 | 55.53428 | 115 ft | 10 kts | 31° |
| 2026-04-25 17:16 | 25.31944 | 55.53465 | 115 ft | 12 kts | 31° |
| 2026-04-25 17:16 | 25.32017 | 55.53512 | 117 ft | 14 kts | 31° |
| 2026-04-25 17:17 | 25.32099 | 55.53506 | 114 ft | 11 kts | 311° |
| 2026-04-25 17:17 | 25.32132 | 55.53451 | 117 ft | 7 kts | 301° |
| 2026-04-25 17:17 | 25.32140 | 55.53437 | 115 ft | 0 kts | 302° |
| 2026-04-25 17:17 | 25.32141 | 55.53435 | 115 ft | 3 kts | 302° |
| 2026-04-25 17:18 | 25.32255 | 55.53236 | 115 ft | 65 kts | 303° |
| 2026-04-25 17:18 | 25.32606 | 55.52622 | 116 ft | 121 kts | 302° |
| 2026-04-25 17:18 | 25.33139 | 55.51692 | 118 ft | 163 kts | 302° |
| 2026-04-25 17:18 | 25.33780 | 55.50584 | 501 ft | 167 kts | 304° |
| 2026-04-25 17:19 | 25.34405 | 55.49571 | 1146 ft | 156 kts | 307° |
| 2026-04-25 17:19 | 25.35007 | 55.48580 | 1563 ft | 156 kts | 307° |
| 2026-04-25 17:19 | 25.35610 | 55.47573 | 1942 ft | 158 kts | 306° |
| 2026-04-25 17:19 | 25.36220 | 55.46555 | 2334 ft | 159 kts | 306° |
| 2026-04-25 17:20 | 25.36840 | 55.45544 | 2710 ft | 159 kts | 307° |
| 2026-04-25 17:20 | 25.37477 | 55.44538 | 3080 ft | 162 kts | 307° |
| 2026-04-25 17:20 | 25.38148 | 55.43508 | 3378 ft | 169 kts | 307° |
| 2026-04-25 17:20 | 25.38803 | 55.42389 | 3637 ft | 178 kts | 300° |
| 2026-04-25 17:21 | 25.39615 | 55.41329 | 3935 ft | 184 kts | 321° |
| 2026-04-25 17:21 | 25.40833 | 55.40817 | 4161 ft | 199 kts | 357° |
| 2026-04-25 17:21 | 25.42234 | 55.41196 | 4310 ft | 221 kts | 28° |
| 2026-04-25 17:21 | 25.43532 | 55.42088 | 4913 ft | 213 kts | 27° |
| 2026-04-25 17:22 | 25.44843 | 55.42949 | 5290 ft | 224 kts | 30° |
| 2026-04-25 17:22 | 25.45727 | 55.43583 | 5501 ft | 233 kts | 31° |
| 2026-04-25 17:22 | 25.47558 | 55.44935 | 6151 ft | 239 kts | 31° |
| 2026-04-25 17:22 | 25.48953 | 55.45930 | 6767 ft | 238 kts | 30° |
| 2026-04-25 17:23 | 25.50341 | 55.46935 | 7346 ft | 238 kts | 31° |
| 2026-04-25 17:23 | 25.51611 | 55.48190 | 7589 ft | 259 kts | 58° |
| 2026-04-25 17:23 | 25.52105 | 55.50170 | 7744 ft | 282 kts | 93° |
| 2026-04-25 17:23 | 25.51482 | 55.52256 | 8046 ft | 294 kts | 127° |
| 2026-04-25 17:24 | 25.49939 | 55.53726 | 8571 ft | 296 kts | 153° |
| 2026-04-25 17:24 | 25.48106 | 55.54797 | 9208 ft | 299 kts | 154° |
| 2026-04-25 17:24 | 25.46247 | 55.55839 | 9876 ft | 300 kts | 155° |
| 2026-04-25 17:24 | 25.44347 | 55.56892 | 10214 ft | 315 kts | 155° |
| 2026-04-25 17:25 | 25.43021 | 55.57625 | 10296 ft | 328 kts | 155° |
| 2026-04-25 17:25 | 25.40181 | 55.59198 | 10532 ft | 351 kts | 155° |
| 2026-04-25 17:25 | 25.37979 | 55.60426 | 11018 ft | 357 kts | 155° |
| 2026-04-25 17:25 | 25.35751 | 55.61672 | 11598 ft | 360 kts | 155° |
| 2026-04-25 17:26 | 25.33507 | 55.62930 | 12176 ft | 363 kts | 155° |
| 2026-04-25 17:26 | 25.31245 | 55.64199 | 12771 ft | 366 kts | 155° |
| 2026-04-25 17:26 | 25.28964 | 55.65480 | 13366 ft | 369 kts | 155° |
| 2026-04-25 17:26 | 25.26665 | 55.66769 | 13939 ft | 372 kts | 155° |
| 2026-04-25 17:27 | 25.24343 | 55.68068 | 14465 ft | 375 kts | 155° |
| 2026-04-25 17:27 | 25.22003 | 55.69374 | 14993 ft | 379 kts | 155° |
| 2026-04-25 17:27 | 25.19645 | 55.70690 | 15509 ft | 382 kts | 155° |
| 2026-04-25 17:27 | 25.18870 | 55.71122 | 15680 ft | 383 kts | 155° |
| 2026-04-25 17:28 | 25.14861 | 55.73365 | 16547 ft | 388 kts | 155° |
| 2026-04-25 17:28 | 25.12441 | 55.74718 | 17051 ft | 392 kts | 155° |
| 2026-04-25 17:28 | 25.10033 | 55.76062 | 17544 ft | 395 kts | 155° |
| 2026-04-25 17:28 | 25.07573 | 55.77433 | 18043 ft | 398 kts | 155° |
| 2026-04-25 17:29 | 25.05092 | 55.78813 | 18491 ft | 401 kts | 155° |
| 2026-04-25 17:29 | 25.02598 | 55.80203 | 18915 ft | 403 kts | 155° |
| 2026-04-25 17:29 | 25.00085 | 55.81604 | 19338 ft | 406 kts | 155° |
| 2026-04-25 17:29 | 24.97559 | 55.83012 | 19752 ft | 408 kts | 155° |
| 2026-04-25 17:30 | 24.95016 | 55.84429 | 20160 ft | 411 kts | 155° |
| 2026-04-25 17:30 | 24.92457 | 55.85853 | 20569 ft | 413 kts | 156° |
| 2026-04-25 17:30 | 24.89879 | 55.87286 | 20979 ft | 416 kts | 156° |
| 2026-04-25 17:30 | 24.87287 | 55.88725 | 21392 ft | 418 kts | 156° |
| 2026-04-25 17:31 | 24.84682 | 55.90171 | 21801 ft | 421 kts | 156° |
| 2026-04-25 17:31 | 24.82058 | 55.91628 | 22189 ft | 424 kts | 156° |
| 2026-04-25 17:31 | 24.79335 | 55.92851 | 22573 ft | 423 kts | 166° |
| 2026-04-25 17:31 | 24.76469 | 55.93535 | 22950 ft | 421 kts | 176° |
| 2026-04-25 17:32 | 24.73553 | 55.93670 | 23338 ft | 420 kts | 185° |
| 2026-04-25 17:32 | 24.70625 | 55.93588 | 23702 ft | 422 kts | 185° |
| 2026-04-25 17:32 | 24.67682 | 55.93511 | 23993 ft | 425 kts | 185° |
| 2026-04-25 17:32 | 24.64725 | 55.93400 | 24336 ft | 425 kts | 188° |
| 2026-04-25 17:33 | 24.61825 | 55.92831 | 24677 ft | 423 kts | 199° |
| 2026-04-25 17:33 | 24.59089 | 55.91686 | 25010 ft | 421 kts | 209° |
| 2026-04-25 17:33 | 24.56605 | 55.90009 | 25342 ft | 419 kts | 219° |
| 2026-04-25 17:33 | 24.54416 | 55.87957 | 25672 ft | 420 kts | 223° |
| 2026-04-25 17:34 | 24.52225 | 55.85831 | 26006 ft | 422 kts | 223° |
| 2026-04-25 17:34 | 24.50019 | 55.83700 | 26336 ft | 423 kts | 223° |
| 2026-04-25 17:34 | 24.47798 | 55.81562 | 26662 ft | 425 kts | 223° |
| 2026-04-25 17:34 | 24.45567 | 55.79422 | 26991 ft | 427 kts | 223° |
| 2026-04-25 17:35 | 24.43323 | 55.77273 | 27307 ft | 429 kts | 223° |
| 2026-04-25 17:35 | 24.41068 | 55.75114 | 27626 ft | 431 kts | 223° |
| 2026-04-25 17:35 | 24.38805 | 55.72948 | 27950 ft | 433 kts | 223° |
| 2026-04-25 17:35 | 24.36533 | 55.70773 | 28260 ft | 434 kts | 223° |
| 2026-04-25 17:36 | 24.34251 | 55.68586 | 28567 ft | 436 kts | 223° |
| 2026-04-25 17:36 | 24.31966 | 55.66392 | 28853 ft | 438 kts | 223° |
| 2026-04-25 17:36 | 24.29666 | 55.64182 | 29117 ft | 440 kts | 223° |
| 2026-04-25 17:36 | 24.27261 | 55.62086 | 29390 ft | 444 kts | 216° |
| 2026-04-25 17:37 | 24.24551 | 55.60440 | 29643 ft | 449 kts | 206° |
| 2026-04-25 17:37 | 24.21585 | 55.59317 | 29904 ft | 454 kts | 197° |
| 2026-04-25 17:37 | 24.18525 | 55.58420 | 30142 ft | 456 kts | 198° |
| 2026-04-25 17:37 | 24.15457 | 55.57509 | 30364 ft | 458 kts | 198° |
| 2026-04-25 17:38 | 24.12386 | 55.56588 | 30692 ft | 457 kts | 198° |
| 2026-04-25 17:38 | 24.11393 | 55.56289 | 30789 ft | 457 kts | 198° |
| 2026-04-25 17:38 | 24.06265 | 55.54743 | 31332 ft | 456 kts | 198° |
| 2026-04-25 17:38 | 24.03206 | 55.53824 | 31651 ft | 456 kts | 198° |
| 2026-04-25 17:39 | 24.00147 | 55.52911 | 31971 ft | 455 kts | 198° |
| 2026-04-25 17:39 | 23.97091 | 55.52003 | 32289 ft | 455 kts | 198° |
| 2026-04-25 17:39 | 23.94079 | 55.51113 | 32599 ft | 455 kts | 198° |
| 2026-04-25 17:39 | 23.91023 | 55.50212 | 32924 ft | 454 kts | 198° |
| 2026-04-25 17:40 | 23.87970 | 55.49310 | 33247 ft | 454 kts | 198° |
| 2026-04-25 17:40 | 23.84921 | 55.48408 | 33555 ft | 454 kts | 199° |
| 2026-04-25 17:40 | 23.81875 | 55.47503 | 33879 ft | 454 kts | 199° |
| 2026-04-25 17:40 | 23.78825 | 55.46594 | 33954 ft | 454 kts | 199° |
| 2026-04-25 17:41 | 23.72730 | 55.44778 | 33950 ft | 454 kts | 199° |
| 2026-04-25 17:41 | 23.66629 | 55.42964 | 34266 ft | 455 kts | 199° |
| 2026-04-25 17:42 | 23.63576 | 55.42057 | 34505 ft | 456 kts | 199° |
| 2026-04-25 17:42 | 23.60513 | 55.41147 | 34732 ft | 456 kts | 199° |
| 2026-04-25 17:42 | 23.57446 | 55.40237 | 34955 ft | 457 kts | 199° |
| 2026-04-25 17:42 | 23.54373 | 55.39329 | 35174 ft | 458 kts | 200° |
| 2026-04-25 17:43 | 23.51294 | 55.38421 | 35399 ft | 459 kts | 200° |
| 2026-04-25 17:43 | 23.48210 | 55.37508 | 35619 ft | 459 kts | 200° |
| 2026-04-25 17:43 | 23.45122 | 55.36594 | 35824 ft | 460 kts | 200° |
| 2026-04-25 17:43 | 23.42029 | 55.35678 | 35917 ft | 461 kts | 200° |
| 2026-04-25 17:44 | 23.36895 | 55.34163 | 35936 ft | 459 kts | 200° |
| 2026-04-25 17:44 | 23.30736 | 55.32348 | 35933 ft | 458 kts | 200° |
| 2026-04-25 17:45 | 23.25621 | 55.30841 | 35930 ft | 458 kts | 200° |
| 2026-04-25 17:45 | 23.17424 | 55.28429 | 35923 ft | 459 kts | 200° |
| 2026-04-25 17:46 | 23.12266 | 55.26911 | 35918 ft | 458 kts | 201° |
| 2026-04-25 17:46 | 23.09294 | 55.25748 | 35916 ft | 450 kts | 212° |
| 2026-04-25 17:46 | 23.06689 | 55.24023 | 35914 ft | 441 kts | 224° |
| 2026-04-25 17:47 | 23.04473 | 55.21780 | 35911 ft | 432 kts | 235° |
| 2026-04-25 17:47 | 23.02739 | 55.19157 | 35910 ft | 425 kts | 245° |
| 2026-04-25 17:47 | 23.00791 | 55.13221 | 35921 ft | 416 kts | 261° |
| 2026-04-25 17:48 | 22.98982 | 55.03997 | 35927 ft | 417 kts | 261° |
| 2026-04-25 17:49 | 22.97767 | 54.97842 | 35927 ft | 417 kts | 261° |
| 2026-04-25 17:49 | 22.96550 | 54.91692 | 35933 ft | 417 kts | 261° |
| 2026-04-25 17:50 | 22.95326 | 54.85546 | 35936 ft | 416 kts | 261° |
| 2026-04-25 17:50 | 22.94109 | 54.79409 | 35930 ft | 416 kts | 261° |
| 2026-04-25 17:51 | 22.92894 | 54.73279 | 35929 ft | 416 kts | 261° |
| 2026-04-25 17:51 | 22.91679 | 54.67192 | 35936 ft | 416 kts | 261° |
| 2026-04-25 17:52 | 22.90453 | 54.61071 | 35935 ft | 415 kts | 261° |
| 2026-04-25 17:52 | 22.89222 | 54.54955 | 35935 ft | 415 kts | 261° |
| 2026-04-25 17:53 | 22.87994 | 54.48846 | 35937 ft | 414 kts | 261° |
| 2026-04-25 17:53 | 22.86778 | 54.42738 | 35935 ft | 414 kts | 261° |
| 2026-04-25 17:54 | 22.85548 | 54.36639 | 35933 ft | 414 kts | 261° |
| 2026-04-25 17:54 | 22.84312 | 54.30541 | 35930 ft | 414 kts | 261° |
| 2026-04-25 17:55 | 22.83077 | 54.24449 | 35932 ft | 414 kts | 261° |
| 2026-04-25 17:55 | 22.81841 | 54.18360 | 35931 ft | 414 kts | 261° |
| 2026-04-25 17:56 | 22.80601 | 54.12270 | 35931 ft | 414 kts | 261° |
| 2026-04-25 17:56 | 22.79358 | 54.06180 | 35937 ft | 414 kts | 261° |
| 2026-04-25 17:57 | 22.78117 | 54.00095 | 35934 ft | 413 kts | 261° |
| 2026-04-25 17:57 | 22.76910 | 53.94051 | 35938 ft | 413 kts | 262° |
| 2026-04-25 17:58 | 22.75732 | 53.87922 | 35926 ft | 413 kts | 262° |
| 2026-04-25 17:58 | 22.74564 | 53.81878 | 35936 ft | 413 kts | 262° |
| 2026-04-25 17:59 | 22.73374 | 53.75798 | 35930 ft | 413 kts | 262° |
| 2026-04-25 17:59 | 22.72182 | 53.69719 | 35923 ft | 413 kts | 262° |
| 2026-04-25 18:00 | 22.70984 | 53.63640 | 35919 ft | 413 kts | 262° |
| 2026-04-25 18:00 | 22.69786 | 53.57558 | 35934 ft | 413 kts | 262° |
| 2026-04-25 18:01 | 22.68583 | 53.51485 | 35934 ft | 412 kts | 262° |
| 2026-04-25 18:01 | 22.67387 | 53.45417 | 35939 ft | 412 kts | 262° |
| 2026-04-25 18:02 | 22.66185 | 53.39354 | 35945 ft | 412 kts | 261° |
| 2026-04-25 18:02 | 22.64990 | 53.33343 | 35945 ft | 411 kts | 261° |
| 2026-04-25 18:03 | 22.63784 | 53.27297 | 35945 ft | 411 kts | 261° |
| 2026-04-25 18:03 | 22.62578 | 53.21259 | 35955 ft | 410 kts | 261° |
| 2026-04-25 18:04 | 22.61372 | 53.15227 | 35949 ft | 410 kts | 261° |
| 2026-04-25 18:04 | 22.60168 | 53.09199 | 35939 ft | 410 kts | 261° |
| 2026-04-25 18:05 | 22.58964 | 53.03164 | 35933 ft | 411 kts | 261° |
| 2026-04-25 18:05 | 22.57747 | 52.97118 | 35934 ft | 412 kts | 260° |
| 2026-04-25 18:06 | 22.56519 | 52.91059 | 35929 ft | 413 kts | 260° |
| 2026-04-25 18:06 | 22.55292 | 52.84985 | 35925 ft | 414 kts | 261° |
| 2026-04-25 18:07 | 22.54075 | 52.78944 | 35927 ft | 414 kts | 261° |
| 2026-04-25 18:07 | 22.52840 | 52.72854 | 35934 ft | 415 kts | 261° |
| 2026-04-25 18:08 | 22.51598 | 52.66755 | 35935 ft | 415 kts | 261° |
| 2026-04-25 18:08 | 22.50355 | 52.60656 | 35935 ft | 415 kts | 261° |
| 2026-04-25 18:09 | 22.49114 | 52.54556 | 35938 ft | 415 kts | 261° |
| 2026-04-25 18:09 | 22.47866 | 52.48455 | 35941 ft | 415 kts | 261° |
| 2026-04-25 18:10 | 22.46620 | 52.42358 | 35943 ft | 415 kts | 261° |
| 2026-04-25 18:10 | 22.45367 | 52.36266 | 35945 ft | 415 kts | 261° |
| 2026-04-25 18:11 | 22.44114 | 52.30171 | 35949 ft | 415 kts | 261° |
| 2026-04-25 18:11 | 22.42854 | 52.24085 | 35951 ft | 415 kts | 261° |
| 2026-04-25 18:12 | 22.41595 | 52.18008 | 35956 ft | 414 kts | 261° |
| 2026-04-25 18:12 | 22.40902 | 52.11893 | 35955 ft | 407 kts | 276° |
| 2026-04-25 18:13 | 22.41728 | 52.05877 | 35958 ft | 405 kts | 281° |
| 2026-04-25 18:13 | 22.42675 | 51.99927 | 35958 ft | 404 kts | 281° |
| 2026-04-25 18:14 | 22.44090 | 51.90941 | 35961 ft | 404 kts | 281° |
| 2026-04-25 18:14 | 22.45027 | 51.84957 | 35964 ft | 404 kts | 281° |
| 2026-04-25 18:15 | 22.45952 | 51.78978 | 35959 ft | 403 kts | 281° |
| 2026-04-25 18:15 | 22.46885 | 51.73006 | 35959 ft | 403 kts | 281° |
| 2026-04-25 18:16 | 22.47818 | 51.67038 | 35963 ft | 402 kts | 281° |
| 2026-04-25 18:17 | 22.49205 | 51.58090 | 35964 ft | 402 kts | 281° |
| 2026-04-25 18:17 | 22.50135 | 51.52131 | 35966 ft | 402 kts | 281° |
| 2026-04-25 18:18 | 22.51053 | 51.46174 | 35969 ft | 401 kts | 281° |
| 2026-04-25 18:18 | 22.51962 | 51.40263 | 35970 ft | 401 kts | 281° |
| 2026-04-25 18:19 | 22.52874 | 51.34317 | 35970 ft | 401 kts | 281° |
| 2026-04-25 18:19 | 22.53793 | 51.28379 | 35968 ft | 400 kts | 281° |
| 2026-04-25 18:20 | 22.54700 | 51.22442 | 35967 ft | 400 kts | 281° |
| 2026-04-25 18:20 | 22.55599 | 51.16508 | 35972 ft | 400 kts | 281° |
| 2026-04-25 18:21 | 22.56496 | 51.10575 | 35973 ft | 399 kts | 281° |
| 2026-04-25 18:21 | 22.57394 | 51.04650 | 35974 ft | 399 kts | 281° |
| 2026-04-25 18:22 | 22.58297 | 50.98726 | 35973 ft | 399 kts | 281° |
| 2026-04-25 18:22 | 22.59180 | 50.92844 | 35967 ft | 399 kts | 280° |
| 2026-04-25 18:23 | 22.60066 | 50.86924 | 35972 ft | 398 kts | 280° |
| 2026-04-25 18:23 | 22.60959 | 50.81006 | 35970 ft | 398 kts | 280° |
| 2026-04-25 18:24 | 22.61846 | 50.75090 | 35968 ft | 398 kts | 280° |
| 2026-04-25 18:24 | 22.62730 | 50.69173 | 35969 ft | 398 kts | 280° |
| 2026-04-25 18:25 | 22.63614 | 50.63258 | 35968 ft | 398 kts | 280° |
| 2026-04-25 18:25 | 22.64492 | 50.57346 | 35969 ft | 398 kts | 280° |
| 2026-04-25 18:26 | 22.65367 | 50.51433 | 35970 ft | 398 kts | 280° |
| 2026-04-25 18:26 | 22.66241 | 50.45522 | 35968 ft | 398 kts | 280° |
| 2026-04-25 18:27 | 22.67120 | 50.39612 | 35967 ft | 397 kts | 280° |
| 2026-04-25 18:27 | 22.67984 | 50.33743 | 35967 ft | 397 kts | 280° |
| 2026-04-25 18:28 | 22.68848 | 50.27835 | 35967 ft | 397 kts | 280° |
| 2026-04-25 18:28 | 22.69707 | 50.21926 | 35966 ft | 397 kts | 280° |
| 2026-04-25 18:29 | 22.70998 | 50.13069 | 35968 ft | 397 kts | 280° |
| 2026-04-25 18:30 | 22.72716 | 50.01267 | 35963 ft | 396 kts | 280° |
| 2026-04-25 18:30 | 22.73563 | 49.95369 | 35968 ft | 396 kts | 280° |
| 2026-04-25 18:31 | 22.74408 | 49.89512 | 35970 ft | 396 kts | 280° |
| 2026-04-25 18:31 | 22.75256 | 49.83620 | 35968 ft | 396 kts | 280° |
| 2026-04-25 18:32 | 22.76103 | 49.77730 | 35961 ft | 396 kts | 279° |
| 2026-04-25 18:32 | 22.76946 | 49.71841 | 35959 ft | 395 kts | 279° |
| 2026-04-25 18:33 | 22.77791 | 49.65956 | 35960 ft | 395 kts | 279° |
| 2026-04-25 18:33 | 22.78625 | 49.60071 | 35961 ft | 395 kts | 279° |
| 2026-04-25 18:34 | 22.79460 | 49.54188 | 35960 ft | 395 kts | 279° |
| 2026-04-25 18:34 | 22.80289 | 49.48307 | 35955 ft | 395 kts | 279° |
| 2026-04-25 18:35 | 22.81121 | 49.42427 | 35958 ft | 395 kts | 279° |
| 2026-04-25 18:35 | 22.81940 | 49.36589 | 35957 ft | 394 kts | 279° |
| 2026-04-25 18:36 | 22.82755 | 49.30712 | 35959 ft | 394 kts | 279° |
| 2026-04-25 18:36 | 22.83579 | 49.24841 | 35959 ft | 394 kts | 279° |
| 2026-04-25 18:37 | 22.84405 | 49.18971 | 35953 ft | 394 kts | 279° |
| 2026-04-25 18:37 | 22.85223 | 49.13107 | 35954 ft | 394 kts | 279° |
| 2026-04-25 18:38 | 22.86032 | 49.07237 | 35906 ft | 392 kts | 279° |
| 2026-04-25 18:38 | 22.86433 | 49.04311 | 35336 ft | 393 kts | 279° |
| 2026-04-25 18:38 | 22.86842 | 49.01376 | 34634 ft | 395 kts | 279° |
| 2026-04-25 18:39 | 22.87255 | 48.98417 | 33950 ft | 398 kts | 279° |
| 2026-04-25 18:39 | 22.87661 | 48.95486 | 33939 ft | 389 kts | 279° |
| 2026-04-25 18:39 | 22.88479 | 48.89592 | 33531 ft | 399 kts | 279° |
| 2026-04-25 18:40 | 22.88892 | 48.86595 | 32655 ft | 404 kts | 278° |
| 2026-04-25 18:40 | 22.89306 | 48.83562 | 31772 ft | 409 kts | 278° |
| 2026-04-25 18:40 | 22.89724 | 48.80491 | 30922 ft | 414 kts | 277° |
| 2026-04-25 18:40 | 22.90147 | 48.77385 | 30198 ft | 417 kts | 277° |
| 2026-04-25 18:41 | 22.90570 | 48.74263 | 29975 ft | 421 kts | 276° |
| 2026-04-25 18:41 | 22.90996 | 48.71104 | 29616 ft | 426 kts | 277° |
| 2026-04-25 18:41 | 22.91423 | 48.67966 | 29087 ft | 427 kts | 277° |
| 2026-04-25 18:41 | 22.91860 | 48.64774 | 28565 ft | 429 kts | 277° |
| 2026-04-25 18:42 | 22.92296 | 48.61569 | 28054 ft | 431 kts | 277° |
| 2026-04-25 18:42 | 22.92444 | 48.60482 | 27884 ft | 432 kts | 276° |
| 2026-04-25 18:42 | 22.93175 | 48.55110 | 27054 ft | 435 kts | 277° |
| 2026-04-25 18:42 | 22.93615 | 48.51877 | 26566 ft | 430 kts | 276° |
| 2026-04-25 18:43 | 22.94045 | 48.48720 | 26416 ft | 414 kts | 276° |
| 2026-04-25 18:43 | 22.94457 | 48.45695 | 26323 ft | 398 kts | 276° |
| 2026-04-25 18:43 | 22.94853 | 48.42762 | 26082 ft | 388 kts | 276° |
| 2026-04-25 18:43 | 22.95108 | 48.40859 | 25967 ft | 383 kts | 276° |
| 2026-04-25 18:44 | 22.95490 | 48.38011 | 25936 ft | 381 kts | 276° |
| 2026-04-25 18:44 | 22.95867 | 48.35169 | 25946 ft | 381 kts | 276° |
| 2026-04-25 18:44 | 22.96246 | 48.32325 | 25946 ft | 381 kts | 276° |
| 2026-04-25 18:44 | 22.96626 | 48.29484 | 25945 ft | 380 kts | 276° |
| 2026-04-25 18:45 | 22.97006 | 48.26645 | 25945 ft | 380 kts | 276° |
| 2026-04-25 18:45 | 22.97384 | 48.23801 | 25784 ft | 380 kts | 276° |
| 2026-04-25 18:45 | 22.97758 | 48.20970 | 25550 ft | 378 kts | 276° |
| 2026-04-25 18:45 | 22.98128 | 48.18146 | 25318 ft | 377 kts | 276° |
| 2026-04-25 18:46 | 22.98499 | 48.15338 | 25090 ft | 376 kts | 276° |
| 2026-04-25 18:46 | 22.98873 | 48.12531 | 24864 ft | 375 kts | 276° |
| 2026-04-25 18:46 | 22.99244 | 48.09735 | 24641 ft | 374 kts | 276° |
| 2026-04-25 18:46 | 22.99612 | 48.06950 | 24416 ft | 372 kts | 276° |
| 2026-04-25 18:47 | 22.99979 | 48.04172 | 24195 ft | 371 kts | 276° |
| 2026-04-25 18:47 | 23.00343 | 48.01402 | 23980 ft | 370 kts | 276° |
| 2026-04-25 18:47 | 23.00708 | 47.98644 | 23940 ft | 369 kts | 276° |
| 2026-04-25 18:47 | 23.01074 | 47.95882 | 23951 ft | 370 kts | 276° |
| 2026-04-25 18:48 | 23.01437 | 47.93118 | 23949 ft | 370 kts | 276° |
| 2026-04-25 18:48 | 23.01797 | 47.90356 | 23949 ft | 370 kts | 276° |
| 2026-04-25 18:48 | 23.02183 | 47.87599 | 23948 ft | 370 kts | 279° |
| 2026-04-25 18:48 | 23.02901 | 47.84945 | 23950 ft | 373 kts | 289° |
| 2026-04-25 18:49 | 23.04069 | 47.82415 | 23955 ft | 377 kts | 298° |
| 2026-04-25 18:49 | 23.05637 | 47.80123 | 23952 ft | 382 kts | 308° |
| 2026-04-25 18:49 | 23.07592 | 47.78126 | 23955 ft | 388 kts | 317° |
| 2026-04-25 18:49 | 23.09848 | 47.76487 | 23957 ft | 392 kts | 323° |
| 2026-04-25 18:50 | 23.12165 | 47.74930 | 23960 ft | 392 kts | 323° |
| 2026-04-25 18:50 | 23.14482 | 47.73372 | 23957 ft | 392 kts | 323° |
| 2026-04-25 18:50 | 23.16800 | 47.71813 | 23960 ft | 392 kts | 323° |
| 2026-04-25 18:50 | 23.19119 | 47.70253 | 23958 ft | 392 kts | 323° |
| 2026-04-25 18:51 | 23.21435 | 47.68691 | 23963 ft | 392 kts | 323° |
| 2026-04-25 18:51 | 23.22970 | 47.67656 | 23963 ft | 392 kts | 323° |
| 2026-04-25 18:51 | 23.26071 | 47.65556 | 23967 ft | 392 kts | 323° |
| 2026-04-25 18:51 | 23.28386 | 47.63985 | 23965 ft | 393 kts | 323° |
| 2026-04-25 18:52 | 23.30706 | 47.62411 | 23963 ft | 393 kts | 323° |
| 2026-04-25 18:52 | 23.33024 | 47.60836 | 23968 ft | 393 kts | 323° |
| 2026-04-25 18:52 | 23.35343 | 47.59259 | 23968 ft | 393 kts | 323° |
| 2026-04-25 18:52 | 23.37662 | 47.57682 | 23970 ft | 393 kts | 323° |
| 2026-04-25 18:53 | 23.39952 | 47.56126 | 23970 ft | 393 kts | 323° |
| 2026-04-25 18:53 | 23.42275 | 47.54550 | 23972 ft | 394 kts | 323° |
| 2026-04-25 18:53 | 23.44599 | 47.52970 | 23971 ft | 394 kts | 323° |
| 2026-04-25 18:53 | 23.46924 | 47.51391 | 23969 ft | 394 kts | 323° |
| 2026-04-25 18:54 | 23.51576 | 47.48237 | 23972 ft | 394 kts | 323° |
| 2026-04-25 18:54 | 23.53902 | 47.46656 | 23975 ft | 394 kts | 322° |
| 2026-04-25 18:54 | 23.56228 | 47.45076 | 23977 ft | 394 kts | 323° |
| 2026-04-25 18:55 | 23.58555 | 47.43496 | 23976 ft | 394 kts | 322° |
| 2026-04-25 18:55 | 23.60885 | 47.41913 | 23976 ft | 394 kts | 322° |
| 2026-04-25 18:55 | 23.63211 | 47.40332 | 23974 ft | 394 kts | 322° |
| 2026-04-25 18:55 | 23.65537 | 47.38748 | 23977 ft | 394 kts | 322° |
| 2026-04-25 18:56 | 23.67861 | 47.37164 | 23974 ft | 394 kts | 322° |
| 2026-04-25 18:56 | 23.70184 | 47.35579 | 23977 ft | 394 kts | 322° |
| 2026-04-25 18:56 | 23.72508 | 47.33993 | 23975 ft | 394 kts | 322° |
| 2026-04-25 18:56 | 23.74830 | 47.32408 | 23977 ft | 394 kts | 322° |
| 2026-04-25 18:57 | 23.77150 | 47.30823 | 23976 ft | 394 kts | 322° |
| 2026-04-25 18:57 | 23.79471 | 47.29240 | 23979 ft | 394 kts | 322° |
| 2026-04-25 18:57 | 23.81763 | 47.27677 | 23981 ft | 393 kts | 322° |
| 2026-04-25 18:57 | 23.83331 | 47.26608 | 23982 ft | 393 kts | 322° |
| 2026-04-25 18:58 | 23.86405 | 47.24511 | 23987 ft | 393 kts | 322° |
| 2026-04-25 18:58 | 23.91039 | 47.21345 | 23982 ft | 393 kts | 322° |
| 2026-04-25 18:58 | 23.93354 | 47.19759 | 23986 ft | 393 kts | 322° |
| 2026-04-25 18:59 | 23.97982 | 47.16592 | 23985 ft | 392 kts | 322° |
| 2026-04-25 18:59 | 24.02605 | 47.13429 | 23988 ft | 392 kts | 322° |
| 2026-04-25 19:00 | 24.07224 | 47.10259 | 23974 ft | 392 kts | 322° |
| 2026-04-25 19:00 | 24.09531 | 47.08674 | 23752 ft | 391 kts | 322° |
| 2026-04-25 19:01 | 24.14109 | 47.05516 | 23270 ft | 387 kts | 322° |
| 2026-04-25 19:01 | 24.16381 | 47.03939 | 23014 ft | 386 kts | 322° |
| 2026-04-25 19:01 | 24.18642 | 47.02369 | 22754 ft | 384 kts | 322° |
| 2026-04-25 19:01 | 24.20893 | 47.00805 | 22503 ft | 382 kts | 322° |
| 2026-04-25 19:02 | 24.25339 | 46.97715 | 22000 ft | 379 kts | 322° |
| 2026-04-25 19:02 | 24.27561 | 46.96167 | 21750 ft | 378 kts | 322° |
| 2026-04-25 19:02 | 24.29654 | 46.94480 | 21500 ft | 369 kts | 310° |
| 2026-04-25 19:03 | 24.32309 | 46.90854 | 21094 ft | 363 kts | 303° |
| 2026-04-25 19:03 | 24.34319 | 46.87937 | 20795 ft | 361 kts | 303° |
| 2026-04-25 19:03 | 24.35827 | 46.85740 | 20543 ft | 360 kts | 302° |
| 2026-04-25 19:04 | 24.39374 | 46.81876 | 20072 ft | 369 kts | 325° |
| 2026-04-25 19:04 | 24.41683 | 46.80619 | 19836 ft | 372 kts | 332° |
| 2026-04-25 19:05 | 24.46462 | 46.78444 | 19363 ft | 370 kts | 331° |
| 2026-04-25 19:05 | 24.51048 | 46.75977 | 18927 ft | 365 kts | 326° |
| 2026-04-25 19:05 | 24.53259 | 46.74622 | 18700 ft | 363 kts | 325° |
| 2026-04-25 19:06 | 24.55437 | 46.73233 | 18481 ft | 361 kts | 324° |
| 2026-04-25 19:06 | 24.59758 | 46.70446 | 17992 ft | 359 kts | 325° |
| 2026-04-25 19:06 | 24.61914 | 46.69070 | 17738 ft | 358 kts | 325° |
| 2026-04-25 19:07 | 24.66211 | 46.66344 | 17244 ft | 355 kts | 325° |
| 2026-04-25 19:07 | 24.68312 | 46.64996 | 16999 ft | 354 kts | 325° |
| 2026-04-25 19:08 | 24.72018 | 46.62601 | 16578 ft | 352 kts | 325° |
| 2026-04-25 19:08 | 24.74120 | 46.61234 | 16334 ft | 351 kts | 325° |
| 2026-04-25 19:09 | 24.80420 | 46.57178 | 15269 ft | 351 kts | 327° |
| 2026-04-25 19:09 | 24.81826 | 46.56305 | 14977 ft | 350 kts | 327° |
| 2026-04-25 19:09 | 24.86768 | 46.53260 | 13915 ft | 348 kts | 328° |
| 2026-04-25 19:10 | 24.88888 | 46.51951 | 13286 ft | 351 kts | 328° |
| 2026-04-25 19:10 | 24.91019 | 46.50632 | 12646 ft | 349 kts | 328° |
| 2026-04-25 19:10 | 24.93096 | 46.49343 | 12029 ft | 338 kts | 328° |
| 2026-04-25 19:10 | 24.95129 | 46.48075 | 11422 ft | 333 kts | 328° |
| 2026-04-25 19:11 | 24.97105 | 46.46841 | 10836 ft | 320 kts | 328° |
| 2026-04-25 19:11 | 24.98995 | 46.45662 | 10372 ft | 305 kts | 328° |
| 2026-04-25 19:11 | 25.00799 | 46.44536 | 9940 ft | 291 kts | 329° |
| 2026-04-25 19:11 | 25.02519 | 46.43463 | 9566 ft | 280 kts | 329° |
| 2026-04-25 19:12 | 25.04214 | 46.42406 | 9201 ft | 279 kts | 329° |
| 2026-04-25 19:12 | 25.05881 | 46.41367 | 9062 ft | 271 kts | 329° |
| 2026-04-25 19:12 | 25.07548 | 46.40484 | 8937 ft | 270 kts | 342° |
| 2026-04-25 19:12 | 25.09425 | 46.40173 | 8804 ft | 271 kts | 2° |
| 2026-04-25 19:13 | 25.11247 | 46.40512 | 8691 ft | 270 kts | 20° |
| 2026-04-25 19:13 | 25.12905 | 46.41455 | 8544 ft | 269 kts | 38° |
| 2026-04-25 19:13 | 25.14331 | 46.42816 | 8094 ft | 272 kts | 45° |
| 2026-04-25 19:13 | 25.15702 | 46.44198 | 7969 ft | 262 kts | 46° |
| 2026-04-25 19:14 | 25.17037 | 46.45552 | 7663 ft | 261 kts | 46° |
| 2026-04-25 19:14 | 25.17489 | 46.46010 | 7531 ft | 262 kts | 46° |
| 2026-04-25 19:14 | 25.19728 | 46.48274 | 6942 ft | 262 kts | 46° |
| 2026-04-25 19:14 | 25.21045 | 46.49597 | 6591 ft | 251 kts | 46° |
| 2026-04-25 19:15 | 25.22322 | 46.50878 | 6245 ft | 245 kts | 47° |
| 2026-04-25 19:15 | 25.23555 | 46.52117 | 5899 ft | 235 kts | 47° |
| 2026-04-25 19:15 | 25.24695 | 46.53371 | 5543 ft | 226 kts | 60° |
| 2026-04-25 19:15 | 25.25300 | 46.54899 | 5474 ft | 210 kts | 85° |
| 2026-04-25 19:16 | 25.25267 | 46.56446 | 5319 ft | 197 kts | 110° |
| 2026-04-25 19:16 | 25.24624 | 46.57726 | 5252 ft | 190 kts | 135° |
| 2026-04-25 19:16 | 25.23533 | 46.58517 | 5211 ft | 190 kts | 160° |
| 2026-04-25 19:16 | 25.22219 | 46.58710 | 5155 ft | 193 kts | 175° |
| 2026-04-25 19:17 | 25.20890 | 46.58756 | 5080 ft | 187 kts | 175° |
| 2026-04-25 19:17 | 25.19611 | 46.58801 | 5027 ft | 183 kts | 175° |
| 2026-04-25 19:17 | 25.18343 | 46.58848 | 5024 ft | 182 kts | 175° |
| 2026-04-25 19:17 | 25.17099 | 46.58895 | 5023 ft | 181 kts | 174° |
| 2026-04-25 19:18 | 25.15839 | 46.58943 | 5026 ft | 181 kts | 175° |
| 2026-04-25 19:18 | 25.14577 | 46.58991 | 5029 ft | 182 kts | 175° |
| 2026-04-25 19:18 | 25.13312 | 46.59039 | 5036 ft | 182 kts | 175° |
| 2026-04-25 19:18 | 25.12046 | 46.59087 | 5038 ft | 182 kts | 174° |
| 2026-04-25 19:19 | 25.10777 | 46.59143 | 5033 ft | 183 kts | 172° |
| 2026-04-25 19:19 | 25.09587 | 46.59565 | 4821 ft | 179 kts | 149° |
| 2026-04-25 19:19 | 25.08507 | 46.60251 | 4589 ft | 179 kts | 148° |
| 2026-04-25 19:19 | 25.07805 | 46.60697 | 4465 ft | 171 kts | 148° |
| 2026-04-25 19:20 | 25.06515 | 46.61516 | 4180 ft | 152 kts | 148° |
| 2026-04-25 19:20 | 25.05611 | 46.62090 | 3991 ft | 148 kts | 147° |
| 2026-04-25 19:20 | 25.04720 | 46.62655 | 3815 ft | 147 kts | 147° |
| 2026-04-25 19:20 | 25.03835 | 46.63214 | 3637 ft | 147 kts | 147° |
| 2026-04-25 19:21 | 25.02950 | 46.63771 | 3446 ft | 147 kts | 147° |
| 2026-04-25 19:21 | 25.01182 | 46.64891 | 3094 ft | 148 kts | 147° |
| 2026-04-25 19:21 | 25.00273 | 46.65473 | 2838 ft | 153 kts | 150° |
| 2026-04-25 19:22 | 24.99324 | 46.66084 | 2631 ft | 162 kts | 156° |
| 2026-04-25 19:22 | 24.98362 | 46.66705 | 2403 ft | 162 kts | 160° |
| 2026-04-25 19:22 | 24.96343 | 46.67986 | 2035 ft | 167 kts | 160° |
| 2026-04-25 19:23 | 24.95447 | 46.68481 | 2036 ft | 106 kts | 152° |
| 2026-04-25 19:23 | 24.95012 | 46.68859 | 2035 ft | 18 kts | 121° |
| 2026-04-25 19:23 | 24.94970 | 46.68938 | 2034 ft | 10 kts | 112° |
| 2026-04-25 19:24 | 24.94960 | 46.69017 | 2032 ft | 11 kts | 85° |
| 2026-04-25 19:24 | 24.94976 | 46.69087 | 2040 ft | 8 kts | 64° |
| 2026-04-25 19:24 | 24.95004 | 46.69128 | 2034 ft | 4 kts | 21° |
| 2026-04-25 19:25 | 24.95076 | 46.69108 | 2032 ft | 8 kts | 333° |
| 2026-04-25 19:25 | 24.95133 | 46.69074 | 2033 ft | 11 kts | 331° |
| 2026-04-25 19:25 | 24.95208 | 46.69028 | 2033 ft | 13 kts | 330° |
| 2026-04-25 19:26 | 24.95284 | 46.68979 | 2033 ft | 14 kts | 329° |
| 2026-04-25 19:26 | 24.95368 | 46.68925 | 2036 ft | 14 kts | 329° |
| 2026-04-25 19:26 | 24.95429 | 46.68886 | 2032 ft | 8 kts | 330° |
| 2026-04-25 19:26 | 24.95477 | 46.68856 | 2029 ft | 8 kts | 330° |
| 2026-04-25 19:27 | 24.95525 | 46.68828 | 2033 ft | 8 kts | 329° |
| 2026-04-25 19:27 | 24.95540 | 46.68818 | 2033 ft | 8 kts | 329° |
| 2026-04-25 19:27 | 24.95618 | 46.68767 | 2032 ft | 8 kts | 329° |
| 2026-04-25 19:27 | 24.95665 | 46.68737 | 2031 ft | 8 kts | 329° |
| 2026-04-25 19:28 | 24.95712 | 46.68706 | 2033 ft | 8 kts | 329° |
| 2026-04-25 19:28 | 24.95759 | 46.68676 | 2032 ft | 8 kts | 329° |
| 2026-04-25 19:28 | 24.95805 | 46.68646 | 2032 ft | 8 kts | 329° |
| 2026-04-25 19:28 | 24.95853 | 46.68616 | 2034 ft | 8 kts | 333° |
| 2026-04-25 19:29 | 24.95900 | 46.68588 | 2032 ft | 8 kts | 329° |
| 2026-04-25 19:29 | 24.95941 | 46.68561 | 2032 ft | 6 kts | 329° |
| 2026-04-25 19:29 | 24.95967 | 46.68545 | 2038 ft | 3 kts | 330° |
| 2026-04-25 19:29 | 24.95975 | 46.68540 | 2031 ft | 0 kts | 330° |
| 2026-04-25 19:30 | 24.95978 | 46.68538 | 2031 ft | 1 kts | 330° |
| 2026-04-25 19:30 | 24.95987 | 46.68532 | 2033 ft | 2 kts | 331° |
| 2026-04-25 19:30 | 24.96003 | 46.68523 | 2031 ft | 3 kts | 331° |
| 2026-04-25 19:30 | 24.96026 | 46.68514 | 2032 ft | 4 kts | 349° |
| 2026-04-25 19:31 | 24.96057 | 46.68520 | 2032 ft | 5 kts | 23° |
| 2026-04-25 19:31 | 24.96084 | 46.68553 | 2036 ft | 7 kts | 56° |
| 2026-04-25 19:31 | 24.96113 | 46.68604 | 2031 ft | 9 kts | 60° |
| 2026-04-25 19:31 | 24.96146 | 46.68666 | 2034 ft | 10 kts | 59° |
| 2026-04-25 19:32 | 24.96184 | 46.68737 | 2031 ft | 11 kts | 60° |
| 2026-04-25 19:32 | 24.96225 | 46.68817 | 2033 ft | 13 kts | 60° |
| 2026-04-25 19:32 | 24.96267 | 46.68897 | 2036 ft | 11 kts | 60° |
| 2026-04-25 19:32 | 24.96279 | 46.68920 | 2035 ft | 10 kts | 60° |
| 2026-04-25 19:33 | 24.96325 | 46.69010 | 2031 ft | 8 kts | 60° |
| 2026-04-25 19:33 | 24.96360 | 46.69076 | 2031 ft | 12 kts | 57° |
| 2026-04-25 19:33 | 24.96413 | 46.69173 | 2034 ft | 17 kts | 60° |
| 2026-04-25 19:33 | 24.96482 | 46.69301 | 2029 ft | 21 kts | 54° |
| 2026-04-25 19:34 | 24.96555 | 46.69448 | 2031 ft | 22 kts | 61° |
| 2026-04-25 19:34 | 24.96637 | 46.69602 | 2034 ft | 25 kts | 60° |
| 2026-04-25 19:34 | 24.96725 | 46.69768 | 2036 ft | 25 kts | 60° |
| 2026-04-25 19:34 | 24.96805 | 46.69920 | 2033 ft | 20 kts | 59° |
| 2026-04-25 19:35 | 24.96857 | 46.70022 | 2035 ft | 13 kts | 79° |
| 2026-04-25 19:35 | 24.96817 | 46.70090 | 2031 ft | 10 kts | 147° |
| 2026-04-25 19:35 | 24.96768 | 46.70122 | 2032 ft | 7 kts | 149° |
| 2026-04-25 19:35 | 24.96726 | 46.70149 | 2032 ft | 8 kts | 150° |
| 2026-04-25 19:36 | 24.96675 | 46.70180 | 2034 ft | 9 kts | 150° |
| 2026-04-25 19:36 | 24.96617 | 46.70217 | 2033 ft | 10 kts | 150° |
| 2026-04-25 19:36 | 24.96552 | 46.70257 | 2034 ft | 11 kts | 149° |
| 2026-04-25 19:36 | 24.96507 | 46.70253 | 2033 ft | 7 kts | 223° |
| 2026-04-25 19:37 | 24.96483 | 46.70212 | 2035 ft | 6 kts | 239° |
| 2026-04-25 19:37 | 24.96470 | 46.70188 | 2029 ft | 4 kts | 239° |
| 2026-04-25 19:37 | 24.96464 | 46.70178 | 2029 ft | 0 kts | 239° |